Time;durP1;ratioP1;P1;durP2;ratioP2;P2;SDS_P1;SDS_P2;PMS_P1;PMS_P2;Temp;Humidity;BMP_temperature;BMP_pressure;BME280_temperature;BME280_humidity;BME280_pressure;Samples;Min_cycle;Max_cycle;Signal;HPM_P1;HPM_P2
2022/05/08 00:01:26;;;;;;;9.15;4.70;;;25.70;96.30;;;;;;4950001;29;20266;-44
2022/05/08 00:03:52;;;;;;;6.97;4.32;;;25.70;96.20;;;;;;4949725;29;20315;-43
2022/05/08 00:06:19;;;;;;;6.70;4.05;;;25.70;96.20;;;;;;4949640;29;20035;-50
2022/05/08 00:08:46;;;;;;;6.85;4.00;;;25.70;96.20;;;;;;4949531;29;20050;-52
2022/05/08 00:11:12;;;;;;;9.18;3.30;;;25.70;96.20;;;;;;4949448;29;20038;-46
2022/05/08 00:13:39;;;;;;;8.80;2.90;;;25.70;96.20;;;;;;4949283;29;20063;-45
2022/05/08 00:16:06;;;;;;;7.25;3.05;;;25.70;96.20;;;;;;4949565;29;20236;-55
2022/05/08 00:18:32;;;;;;;6.25;2.60;;;25.70;96.10;;;;;;4949370;29;20036;-49
2022/05/08 00:21:00;;;;;;;7.93;2.63;;;25.70;96.10;;;;;;4949360;29;20028;-50
2022/05/08 00:23:27;;;;;;;11.05;2.78;;;25.60;96.10;;;;;;4948908;29;20028;-40
2022/05/08 00:25:53;;;;;;;10.48;3.08;;;25.60;96.00;;;;;;4949195;29;20035;-36
2022/05/08 00:28:20;;;;;;;17.33;3.10;;;25.60;96.00;;;;;;4949719;29;20054;-34
2022/05/08 00:30:46;;;;;;;13.18;3.20;;;25.60;96.00;;;;;;4949089;29;20044;-41
2022/05/08 00:33:13;;;;;;;10.90;3.20;;;25.60;96.00;;;;;;4949610;29;20039;-36
2022/05/08 00:35:42;;;;;;;12.90;4.60;;;25.60;95.90;;;;;;4949226;29;20339;-39
2022/05/08 00:38:09;;;;;;;12.90;3.67;;;25.60;96.00;;;;;;4949370;29;20035;-39
2022/05/08 00:40:35;;;;;;;9.10;3.00;;;25.50;96.00;;;;;;4949148;29;20087;-39
2022/05/08 00:43:24;;;;;;;8.98;3.65;;;25.50;96.00;;;;;;4948934;29;20075;-41
2022/05/08 00:45:51;;;;;;;10.57;3.92;;;25.60;95.90;;;;;;4948959;29;20024;-42
2022/05/08 00:48:17;;;;;;;8.30;4.53;;;25.50;95.90;;;;;;4949461;29;20030;-41
2022/05/08 00:50:44;;;;;;;10.85;4.57;;;25.50;96.00;;;;;;4948858;29;20043;-40
2022/05/08 00:53:11;;;;;;;12.15;4.85;;;25.50;96.00;;;;;;4949358;29;20088;-45
2022/05/08 00:55:38;;;;;;;9.57;5.28;;;25.50;96.00;;;;;;4948990;29;20043;-40
2022/05/08 00:58:06;;;;;;;12.52;5.18;;;25.50;96.00;;;;;;4949129;29;20054;-40
2022/05/08 01:00:33;;;;;;;10.40;4.30;;;25.50;96.10;;;;;;4948786;29;20103;-45
2022/05/08 01:03:00;;;;;;;12.00;3.70;;;25.50;96.10;;;;;;4948745;29;20051;-46
2022/05/08 01:05:27;;;;;;;6.78;3.50;;;25.50;96.00;;;;;;4948549;29;20027;-41
2022/05/08 01:07:54;;;;;;;7.97;2.97;;;25.50;96.00;;;;;;4948965;29;20311;-40
2022/05/08 01:10:21;;;;;;;12.70;2.83;;;25.50;96.10;;;;;;4948673;29;20300;-42
2022/05/08 01:12:47;;;;;;;14.27;2.90;;;25.50;96.10;;;;;;4948811;29;20111;-48
2022/05/08 01:15:18;;;;;;;7.40;2.33;;;25.50;96.00;;;;;;4948341;29;20130;-46
2022/05/08 01:17:45;;;;;;;9.82;2.60;;;25.50;96.00;;;;;;4948575;29;20023;-44
2022/05/08 01:20:12;;;;;;;9.45;2.60;;;25.50;96.00;;;;;;4948210;29;20038;-48
2022/05/08 01:22:39;;;;;;;6.90;2.33;;;25.50;96.00;;;;;;4948775;29;20095;-48
2022/05/08 01:25:06;;;;;;;5.60;1.95;;;25.50;96.00;;;;;;4948346;29;20044;-48
2022/05/08 01:27:33;;;;;;;6.30;2.13;;;25.50;96.00;;;;;;4948372;29;20362;-51
2022/05/08 01:29:59;;;;;;;8.27;1.58;;;25.50;96.00;;;;;;4947958;29;20055;-51
2022/05/08 01:32:26;;;;;;;7.80;1.50;;;25.50;95.90;;;;;;4948326;29;20079;-54
2022/05/08 01:34:53;;;;;;;4.38;1.00;;;25.50;95.90;;;;;;4947793;29;20264;-46
2022/05/08 01:37:19;;;;;;;4.95;1.27;;;25.50;95.90;;;;;;4948066;29;20059;-47
2022/05/08 01:39:47;;;;;;;7.05;1.55;;;25.50;95.90;;;;;;4947631;29;20023;-52
2022/05/08 01:42:13;;;;;;;11.68;1.50;;;25.50;95.90;;;;;;4947721;29;20135;-49
2022/05/08 01:44:40;;;;;;;6.57;1.40;;;25.50;96.00;;;;;;4947824;29;20378;-48
2022/05/08 01:49:51;;;;;;;4.22;1.50;;;25.50;95.90;;;;;;4947659;29;20115;-47
2022/05/08 01:52:19;;;;;;;9.75;1.10;;;25.50;95.90;;;;;;4947998;29;20024;-47
2022/05/08 01:54:46;;;;;;;7.00;1.08;;;25.50;95.90;;;;;;4947475;29;20276;-53
2022/05/08 01:57:12;;;;;;;6.68;0.95;;;25.50;95.90;;;;;;4947943;29;20027;-49
2022/05/08 01:59:39;;;;;;;4.28;1.00;;;25.50;95.90;;;;;;4947675;29;20040;-49
2022/05/08 02:02:06;;;;;;;3.45;0.95;;;25.50;95.90;;;;;;4947556;29;20091;-51
2022/05/08 02:04:33;;;;;;;6.80;1.00;;;25.50;95.90;;;;;;4947274;29;20156;-50
2022/05/08 02:07:00;;;;;;;7.25;1.30;;;25.40;95.80;;;;;;4947795;29;20252;-46
2022/05/08 02:09:26;;;;;;;5.72;1.30;;;25.50;95.90;;;;;;4947438;29;20094;-53
2022/05/08 02:11:53;;;;;;;5.82;1.08;;;25.50;95.90;;;;;;4947456;29;20186;-49
2022/05/08 02:14:19;;;;;;;6.45;1.15;;;25.50;95.90;;;;;;4946440;29;20040;-49
2022/05/08 02:16:48;;;;;;;4.88;0.90;;;25.40;95.80;;;;;;4947509;29;20026;-51
2022/05/08 02:19:15;;;;;;;8.30;1.10;;;25.50;95.90;;;;;;4947566;29;20040;-49
2022/05/08 02:21:42;;;;;;;6.63;0.98;;;25.50;95.90;;;;;;4947445;29;20012;-50
2022/05/08 02:24:08;;;;;;;6.00;0.98;;;25.40;95.80;;;;;;4947149;29;20031;-55
2022/05/08 02:26:35;;;;;;;9.85;1.13;;;25.40;95.80;;;;;;4947243;28;20080;-48
2022/05/08 02:29:01;;;;;;;9.88;1.10;;;25.40;95.80;;;;;;4947047;29;20050;-48
2022/05/08 02:31:28;;;;;;;6.72;1.15;;;25.40;95.80;;;;;;4947130;29;20039;-51
2022/05/08 02:33:56;;;;;;;5.10;0.70;;;25.40;95.80;;;;;;4946775;29;20035;-53
2022/05/08 02:36:23;;;;;;;10.43;0.90;;;25.40;95.80;;;;;;4947176;29;20028;-47
2022/05/08 02:38:49;;;;;;;12.10;1.10;;;25.40;95.80;;;;;;4947234;29;20036;-51
2022/05/08 02:41:16;;;;;;;9.70;0.82;;;25.50;95.80;;;;;;4946692;28;20027;-51
2022/05/08 02:43:42;;;;;;;7.55;0.82;;;25.40;95.70;;;;;;4946712;29;20099;-53
2022/05/08 02:46:09;;;;;;;6.68;0.73;;;25.40;95.70;;;;;;4946787;29;20023;-36
2022/05/08 02:48:36;;;;;;;8.70;1.10;;;25.40;95.60;;;;;;4946752;29;20044;-37
2022/05/08 02:51:05;;;;;;;22.75;1.15;;;25.40;95.60;;;;;;4946878;29;20210;-45
2022/05/08 02:53:32;;;;;;;11.25;1.13;;;25.40;95.60;;;;;;4946830;29;20035;-45
2022/05/08 02:58:44;;;;;;;6.00;0.90;;;25.40;95.80;;;;;;4946754;29;20097;-44
2022/05/08 03:01:10;;;;;;;9.27;0.70;;;25.40;95.50;;;;;;4946412;29;20028;-45
2022/05/08 03:03:37;;;;;;;8.20;0.80;;;25.40;95.50;;;;;;4946642;29;20110;-45
2022/05/08 03:06:05;;;;;;;6.65;0.68;;;25.40;95.40;;;;;;4946666;29;20046;-40
2022/05/08 03:08:32;;;;;;;6.75;0.60;;;25.40;95.40;;;;;;4946975;29;20110;-44
2022/05/08 03:13:43;;;;;;;7.68;0.70;;;25.40;95.40;;;;;;4946400;29;20047;-45
2022/05/08 03:16:11;;;;;;;8.05;0.80;;;25.40;95.30;;;;;;4946402;28;20087;-43
2022/05/08 03:18:40;;;;;;;5.85;0.95;;;25.40;95.30;;;;;;4946561;29;20036;-40
2022/05/08 03:21:09;;;;;;;8.10;0.65;;;25.30;95.20;;;;;;4946284;29;20020;-42
2022/05/08 03:23:35;;;;;;;7.20;0.60;;;25.40;95.20;;;;;;4946487;29;20327;-44
2022/05/08 03:26:06;;;;;;;6.13;0.80;;;25.30;95.20;;;;;;4946096;29;20036;-43
2022/05/08 03:28:34;;;;;;;10.35;0.77;;;25.30;95.20;;;;;;4946329;29;20027;-39
2022/05/08 03:31:01;;;;;;;6.85;0.90;;;25.30;95.20;;;;;;4946315;29;20047;-42
2022/05/08 03:33:29;;;;;;;6.97;1.25;;;25.30;95.20;;;;;;4946671;29;20299;-42
2022/05/08 03:35:56;;;;;;;6.20;0.60;;;25.30;95.20;;;;;;4946163;29;20308;-44
2022/05/08 03:38:23;;;;;;;6.78;0.80;;;25.30;95.20;;;;;;4946715;29;20180;-45
2022/05/08 03:40:49;;;;;;;8.23;0.73;;;25.30;95.20;;;;;;4946266;29;20027;-39
2022/05/08 03:43:16;;;;;;;8.70;0.95;;;25.30;95.20;;;;;;4946116;29;20086;-37
2022/05/08 03:45:43;;;;;;;7.13;0.90;;;25.30;95.20;;;;;;4946202;29;20066;-37
2022/05/08 03:48:10;;;;;;;9.10;0.90;;;25.30;95.20;;;;;;4946641;29;20212;-38
2022/05/08 03:50:36;;;;;;;6.55;0.98;;;25.30;95.20;;;;;;4946050;29;20051;-42
2022/05/08 03:53:03;;;;;;;5.65;0.90;;;25.30;95.20;;;;;;4946688;29;20215;-34
2022/05/08 03:55:30;;;;;;;7.35;0.88;;;25.30;95.20;;;;;;4946189;29;20050;-37
2022/05/08 03:57:56;;;;;;;7.68;0.88;;;25.30;95.10;;;;;;4946514;29;20086;-39
2022/05/08 04:00:23;;;;;;;9.25;0.95;;;25.30;95.10;;;;;;4946220;29;20028;-38
2022/05/08 04:02:50;;;;;;;6.38;1.02;;;25.30;95.20;;;;;;4946478;29;20082;-38
2022/05/08 04:05:16;;;;;;;11.25;1.02;;;25.20;95.30;;;;;;4945978;29;20032;-43
2022/05/08 04:07:44;;;;;;;7.22;0.68;;;25.20;95.30;;;;;;4946401;29;20107;-37
2022/05/08 04:10:10;;;;;;;7.68;0.90;;;25.20;95.30;;;;;;4946063;29;20219;-39
2022/05/08 04:12:37;;;;;;;6.70;0.75;;;25.20;95.30;;;;;;4945912;29;20070;-37
2022/05/08 04:15:05;;;;;;;10.50;1.02;;;25.20;95.30;;;;;;4945982;29;20039;-39
2022/05/08 04:17:33;;;;;;;9.23;0.77;;;25.20;95.30;;;;;;4946281;29;20019;-42
2022/05/08 04:19:59;;;;;;;10.40;0.95;;;25.20;95.30;;;;;;4945931;29;20039;-41
2022/05/08 04:25:10;;;;;;;13.20;0.95;;;25.20;95.30;;;;;;4945963;29;20082;-39
2022/05/08 04:27:38;;;;;;;9.00;1.05;;;25.20;95.40;;;;;;4945963;29;20035;-44
2022/05/08 04:30:05;;;;;;;12.52;0.80;;;25.20;95.50;;;;;;4946029;29;20211;-42
2022/05/08 04:32:32;;;;;;;6.95;0.70;;;25.20;95.50;;;;;;4946140;29;20043;-44
2022/05/08 04:34:58;;;;;;;9.75;0.90;;;25.20;95.50;;;;;;4945636;29;20028;-40
2022/05/08 04:37:25;;;;;;;5.38;0.60;;;25.20;95.50;;;;;;4946446;29;20048;-39
2022/05/08 04:39:51;;;;;;;11.35;0.88;;;25.20;95.60;;;;;;4949225;29;20028;-41
2022/05/08 04:42:18;;;;;;;11.18;0.90;;;25.20;95.60;;;;;;4949232;29;20079;-44
2022/05/08 04:44:44;;;;;;;7.07;0.82;;;25.20;95.60;;;;;;4949022;29;20061;-38
2022/05/08 04:47:11;;;;;;;5.35;0.80;;;25.10;95.60;;;;;;4949331;29;20055;-41
2022/05/08 04:49:37;;;;;;;8.10;0.82;;;25.10;95.60;;;;;;4948893;29;20044;-41
2022/05/08 04:52:04;;;;;;;7.45;0.60;;;25.10;95.60;;;;;;4949400;29;20019;-41
2022/05/08 04:54:31;;;;;;;7.18;0.88;;;25.10;95.60;;;;;;4948886;29;20099;-44
2022/05/08 04:56:57;;;;;;;10.45;0.88;;;25.10;95.60;;;;;;4948807;29;20031;-40
2022/05/08 04:59:24;;;;;;;8.30;0.90;;;25.10;95.60;;;;;;4948874;29;20027;-35
2022/05/08 05:01:50;;;;;;;5.70;0.90;;;25.10;95.70;;;;;;4948917;29;20035;-39
2022/05/08 05:04:17;;;;;;;9.43;0.90;;;25.10;95.60;;;;;;4948656;29;20027;-42
2022/05/08 05:06:44;;;;;;;8.00;0.90;;;25.10;95.60;;;;;;4949033;29;20028;-41
2022/05/08 05:09:11;;;;;;;7.80;1.17;;;25.10;95.60;;;;;;4948847;29;20082;-39
2022/05/08 05:11:37;;;;;;;10.20;1.02;;;25.10;95.70;;;;;;4948614;29;20035;-38
2022/05/08 05:14:04;;;;;;;5.47;1.02;;;25.10;95.70;;;;;;4948459;29;20278;-38
2022/05/08 05:16:31;;;;;;;10.98;1.27;;;25.10;95.70;;;;;;4948503;29;20019;-38
2022/05/08 05:18:57;;;;;;;9.25;1.83;;;25.10;95.70;;;;;;4948347;29;20036;-44
2022/05/08 05:21:24;;;;;;;10.18;1.30;;;25.10;95.70;;;;;;4948585;29;20043;-44
2022/05/08 05:23:50;;;;;;;7.88;1.60;;;25.10;95.70;;;;;;4948443;29;20346;-37
2022/05/08 05:26:17;;;;;;;7.95;1.27;;;25.10;95.70;;;;;;4948326;29;20042;-43
2022/05/08 05:28:44;;;;;;;7.60;1.27;;;25.10;95.70;;;;;;4948598;29;20043;-44
2022/05/08 05:31:12;;;;;;;10.05;1.25;;;25.10;95.80;;;;;;4948320;29;20316;-41
2022/05/08 05:33:38;;;;;;;9.27;0.98;;;25.10;95.80;;;;;;4948098;29;20102;-40
2022/05/08 05:36:07;;;;;;;10.07;0.93;;;25.10;95.70;;;;;;4948623;29;20047;-40
2022/05/08 05:38:34;;;;;;;8.70;1.00;;;25.10;95.70;;;;;;4948106;29;20036;-34
2022/05/08 05:41:00;;;;;;;8.30;0.98;;;25.10;95.70;;;;;;4948062;29;20020;-34
2022/05/08 05:43:27;;;;;;;8.07;0.95;;;25.10;95.70;;;;;;4948152;29;20044;-39
2022/05/08 05:48:38;;;;;;;9.50;0.73;;;25.10;95.80;;;;;;4947769;29;20043;-35
2022/05/08 05:51:05;;;;;;;11.30;0.73;;;25.00;95.80;;;;;;4947850;29;20043;-38
2022/05/08 05:53:35;;;;;;;8.82;0.82;;;25.00;95.70;;;;;;4948315;29;20143;-38
2022/05/08 05:56:02;;;;;;;7.93;0.88;;;25.00;95.70;;;;;;4947983;29;20370;-38
2022/05/08 05:58:29;;;;;;;5.43;0.55;;;25.00;95.80;;;;;;4947657;29;20099;-36
2022/05/08 06:00:56;;;;;;;6.63;0.57;;;25.00;95.90;;;;;;4948002;29;20326;-36
2022/05/08 06:03:22;;;;;;;6.13;0.47;;;25.10;95.80;;;;;;4948031;29;20039;-37
2022/05/08 06:05:49;;;;;;;6.05;0.82;;;25.00;95.80;;;;;;4947658;29;20319;-35
2022/05/08 06:08:15;;;;;;;7.20;0.80;;;25.00;95.80;;;;;;4948095;29;20203;-36
2022/05/08 06:10:42;;;;;;;9.20;0.60;;;25.00;95.90;;;;;;4947418;29;20035;-36
2022/05/08 06:13:09;;;;;;;9.20;0.60;;;25.00;95.80;;;;;;4947869;29;20030;-35
2022/05/08 06:15:35;;;;;;;10.75;0.60;;;25.00;95.90;;;;;;4947472;29;20058;-43
2022/05/08 06:18:02;;;;;;;5.40;0.60;;;25.00;95.90;;;;;;4947593;29;20015;-38
2022/05/08 06:20:28;;;;;;;10.52;0.80;;;25.00;95.90;;;;;;4947671;29;20099;-44
2022/05/08 06:22:55;;;;;;;7.28;0.63;;;25.00;95.90;;;;;;4947687;29;20038;-40
2022/05/08 06:25:22;;;;;;;7.20;0.70;;;25.00;95.90;;;;;;4947159;29;20023;-40
2022/05/08 06:27:48;;;;;;;4.20;0.57;;;25.00;95.90;;;;;;4947599;29;20224;-42
2022/05/08 06:30:15;;;;;;;7.90;0.60;;;25.00;95.90;;;;;;4947214;29;20051;-48
2022/05/08 06:32:41;;;;;;;11.05;0.68;;;25.00;95.90;;;;;;4947330;29;20094;-45
2022/05/08 06:35:08;;;;;;;7.45;0.70;;;25.00;95.90;;;;;;4947054;29;20227;-47
2022/05/08 06:37:35;;;;;;;4.60;0.57;;;25.00;95.90;;;;;;4947556;29;20024;-42
2022/05/08 06:40:01;;;;;;;6.78;0.80;;;25.00;95.90;;;;;;4946939;29;20059;-42
2022/05/08 06:42:28;;;;;;;7.53;0.63;;;25.00;95.90;;;;;;4947259;29;20088;-40
2022/05/08 06:44:54;;;;;;;6.47;0.47;;;25.00;95.90;;;;;;4946912;29;20039;-43
2022/05/08 06:47:21;;;;;;;4.30;0.32;;;25.00;96.00;;;;;;4947040;29;20203;-42
2022/05/08 06:49:47;;;;;;;6.30;0.85;;;25.00;96.00;;;;;;4947094;29;20063;-43
2022/05/08 06:52:14;;;;;;;3.85;0.50;;;24.90;95.90;;;;;;4947097;29;20035;-42
2022/05/08 06:54:40;;;;;;;7.88;0.63;;;25.00;96.00;;;;;;4946701;29;20032;-47
2022/05/08 06:57:07;;;;;;;4.43;0.50;;;25.00;96.00;;;;;;4946692;29;20113;-40
2022/05/08 07:02:18;;;;;;;6.43;0.80;;;25.00;96.00;;;;;;4946629;29;20022;-41
2022/05/08 07:04:45;;;;;;;5.80;1.02;;;25.00;96.00;;;;;;4946915;29;20066;-43
2022/05/08 07:07:13;;;;;;;7.43;1.73;;;25.00;96.10;;;;;;4946784;29;20031;-43
2022/05/08 07:09:39;;;;;;;7.75;1.77;;;25.00;96.00;;;;;;4946729;29;20207;-44
2022/05/08 07:12:06;;;;;;;7.45;2.40;;;25.00;96.10;;;;;;4946789;29;20027;-42
2022/05/08 07:14:33;;;;;;;8.57;2.40;;;25.00;96.10;;;;;;4946621;29;20327;-42
2022/05/08 07:17:00;;;;;;;8.23;2.80;;;25.00;96.10;;;;;;4946495;29;20036;-44
2022/05/08 07:19:26;;;;;;;10.45;2.95;;;25.00;96.10;;;;;;4946467;29;20086;-40
2022/05/08 07:21:53;;;;;;;7.70;2.80;;;25.00;96.10;;;;;;4946759;29;20034;-42
2022/05/08 07:24:19;;;;;;;14.02;2.55;;;25.00;96.10;;;;;;4946374;29;20028;-43
2022/05/08 07:26:47;;;;;;;8.57;2.30;;;25.00;96.20;;;;;;4946501;29;20034;-45
2022/05/08 07:29:14;;;;;;;6.00;2.22;;;25.00;96.20;;;;;;4946402;29;20086;-42
2022/05/08 07:31:42;;;;;;;8.90;2.20;;;25.00;96.20;;;;;;4946465;29;20024;-45
2022/05/08 07:36:54;;;;;;;10.25;2.00;;;25.00;96.30;;;;;;4946405;29;20059;-40
2022/05/08 07:39:21;;;;;;;8.23;1.92;;;24.90;96.20;;;;;;4946291;29;20320;-43
2022/05/08 07:41:47;;;;;;;9.40;2.10;;;25.00;96.30;;;;;;4946422;29;20075;-44
2022/05/08 07:44:14;;;;;;;8.57;2.10;;;24.90;96.30;;;;;;4946044;29;20115;-41
2022/05/08 07:46:40;;;;;;;7.88;1.90;;;25.00;96.30;;;;;;4946344;29;20040;-49
2022/05/08 07:49:08;;;;;;;10.25;2.45;;;25.00;96.30;;;;;;4946196;29;20030;-45
2022/05/08 07:51:35;;;;;;;10.48;2.05;;;25.00;96.30;;;;;;4946065;29;20145;-39
2022/05/08 07:54:01;;;;;;;13.20;2.00;;;25.00;96.30;;;;;;4946157;29;20070;-42
2022/05/08 07:56:28;;;;;;;9.10;2.50;;;25.00;96.30;;;;;;4946305;29;20036;-48
2022/05/08 07:58:55;;;;;;;11.15;2.30;;;25.00;96.40;;;;;;4945998;29;20031;-42
2022/05/08 08:01:21;;;;;;;15.27;2.33;;;25.00;96.30;;;;;;4946151;29;20094;-41
2022/05/08 08:03:48;;;;;;;13.77;2.08;;;25.00;96.40;;;;;;4946027;29;20086;-41
2022/05/08 08:06:14;;;;;;;7.95;1.70;;;25.00;96.40;;;;;;4946025;29;20024;-41
2022/05/08 08:08:41;;;;;;;7.60;1.60;;;25.00;96.40;;;;;;4946589;29;20032;-44
2022/05/08 08:11:10;;;;;;;6.53;1.40;;;25.00;96.30;;;;;;4945888;29;20115;-45
2022/05/08 08:13:38;;;;;;;12.35;2.00;;;25.00;96.20;;;;;;4948185;29;20036;-40
2022/05/08 08:16:05;;;;;;;8.82;1.70;;;25.00;96.20;;;;;;4949816;29;20304;-39
2022/05/08 08:18:32;;;;;;;13.85;1.73;;;25.00;96.20;;;;;;4950028;29;20028;-40
2022/05/08 08:20:58;;;;;;;8.57;1.17;;;24.90;96.20;;;;;;4949884;29;20324;-43
2022/05/08 08:23:27;;;;;;;10.07;1.20;;;25.00;96.10;;;;;;4949825;29;20038;-44
2022/05/08 08:25:54;;;;;;;7.93;1.38;;;25.00;96.10;;;;;;4949436;29;20019;-43
2022/05/08 08:28:21;;;;;;;11.27;1.60;;;25.00;96.20;;;;;;4949933;29;20329;-41
2022/05/08 08:30:47;;;;;;;6.55;0.93;;;24.90;96.10;;;;;;4949284;29;20023;-40
2022/05/08 08:33:14;;;;;;;11.52;1.30;;;25.00;96.10;;;;;;4949870;29;20027;-40
2022/05/08 08:35:41;;;;;;;12.73;1.08;;;24.90;96.10;;;;;;4949372;29;20046;-40
2022/05/08 08:38:09;;;;;;;8.07;1.02;;;24.90;96.10;;;;;;4949481;29;20086;-49
2022/05/08 08:40:40;;;;;;;8.15;0.80;;;24.90;96.10;;;;;;4949209;29;20055;-44
2022/05/08 08:43:11;;;;;;;8.75;1.00;;;24.90;96.10;;;;;;4949278;29;20035;-44
2022/05/08 08:48:32;;;;;;;7.32;0.85;;;24.90;96.10;;;;;;4949515;29;20070;-40
2022/05/08 08:51:00;;;;;;;6.93;0.80;;;24.90;96.10;;;;;;4949016;29;20215;-43
2022/05/08 08:53:28;;;;;;;6.85;0.80;;;24.90;96.10;;;;;;4949368;29;20035;-41
2022/05/08 08:55:56;;;;;;;10.27;1.10;;;24.90;96.10;;;;;;4948858;29;20227;-46
2022/05/08 08:58:22;;;;;;;5.88;0.82;;;24.90;96.10;;;;;;4949315;29;20035;-45
2022/05/08 09:00:50;;;;;;;7.43;0.85;;;24.90;96.00;;;;;;4948836;29;20051;-42
2022/05/08 09:03:27;;;;;;;7.03;0.90;;;24.90;96.00;;;;;;4949114;29;20079;-39
2022/05/08 09:06:02;;;;;;;8.45;0.68;;;24.90;96.00;;;;;;4948753;29;20320;-43
2022/05/08 09:08:35;;;;;;;6.43;0.70;;;24.90;96.00;;;;;;4949056;29;20087;-45
2022/05/08 09:11:02;;;;;;;8.07;0.70;;;24.80;96.10;;;;;;4948617;29;20040;-43
2022/05/08 09:13:30;;;;;;;6.78;0.80;;;24.80;96.00;;;;;;4949062;29;20321;-45
2022/05/08 09:16:07;;;;;;;8.60;1.00;;;24.90;96.00;;;;;;4948676;29;20103;-40
2022/05/08 09:18:47;;;;;;;10.75;1.00;;;24.90;96.00;;;;;;4948518;29;20034;-44
2022/05/08 09:24:12;;;;;;;8.63;0.90;;;24.80;95.90;;;;;;4948048;29;20114;-45
2022/05/08 09:26:39;;;;;;;7.88;1.00;;;24.80;95.90;;;;;;4948428;29;20098;-44
2022/05/08 09:29:07;;;;;;;11.88;1.00;;;24.80;96.00;;;;;;4948416;29;20353;-44
2022/05/08 09:31:43;;;;;;;5.35;0.73;;;24.80;96.10;;;;;;4948185;29;20326;-41
2022/05/08 09:34:09;;;;;;;5.78;0.77;;;24.80;96.10;;;;;;4948263;29;20227;-43
2022/05/08 09:36:36;;;;;;;10.07;1.20;;;24.80;96.10;;;;;;4948203;29;20031;-47
2022/05/08 09:39:05;;;;;;;11.30;1.40;;;24.80;96.10;;;;;;4948145;29;20044;-41
2022/05/08 09:41:38;;;;;;;7.30;1.00;;;24.80;96.10;;;;;;4948020;29;20024;-40
2022/05/08 09:44:15;;;;;;;8.38;1.13;;;24.80;96.10;;;;;;4947919;29;20094;-40
2022/05/08 09:46:46;;;;;;;9.60;1.20;;;24.80;96.10;;;;;;4948117;29;20027;-39
2022/05/08 09:49:15;;;;;;;10.65;1.60;;;24.80;96.10;;;;;;4947933;29;20036;-41
2022/05/08 09:51:43;;;;;;;13.38;1.60;;;24.80;96.10;;;;;;4947925;29;20087;-47
2022/05/08 09:54:11;;;;;;;7.43;1.48;;;24.80;96.00;;;;;;4947800;29;20038;-44
2022/05/08 09:56:38;;;;;;;9.98;1.20;;;24.80;96.10;;;;;;4947887;29;20027;-41
2022/05/08 09:59:08;;;;;;;6.85;1.48;;;24.80;96.10;;;;;;4947594;29;20319;-41
2022/05/08 10:01:35;;;;;;;9.10;1.23;;;24.80;96.10;;;;;;4947751;29;20027;-49
2022/05/08 10:04:01;;;;;;;9.38;1.23;;;24.80;96.10;;;;;;4947808;29;20197;-40
2022/05/08 10:06:29;;;;;;;8.48;1.60;;;24.80;96.10;;;;;;4947492;29;20311;-44
2022/05/08 10:13:53;;;;;;;9.88;1.30;;;24.80;96.20;;;;;;4947552;29;20350;-45
2022/05/08 10:14:33;;;;;;;12.82;1.40;;;24.70;96.20;;;;;;4947528;29;20095;-41
2022/05/08 10:17:05;;;;;;;11.65;1.33;;;24.70;96.20;;;;;;4947425;29;20063;-43
2022/05/08 10:19:31;;;;;;;8.77;1.38;;;24.70;96.30;;;;;;4947702;29;20268;-46
2022/05/08 10:24:28;;;;;;;8.30;1.35;;;24.70;96.20;;;;;;4947534;29;20035;-40
2022/05/08 10:27:21;;;;;;;9.55;1.80;;;24.70;96.20;;;;;;4947559;29;20332;-43
2022/05/08 10:29:51;;;;;;;6.13;1.33;;;24.70;96.20;;;;;;4947235;29;20040;-45
2022/05/08 10:32:32;;;;;;;9.93;1.50;;;24.70;96.20;;;;;;4947459;29;20083;-40
2022/05/08 10:35:25;;;;;;;9.15;1.75;;;24.70;96.30;;;;;;4946366;29;20091;-40
2022/05/08 10:38:19;;;;;;;9.60;2.17;;;24.70;96.20;;;;;;4947258;29;20024;-42
2022/05/08 10:40:46;;;;;;;7.65;2.20;;;24.70;96.20;;;;;;4939902;29;20036;-45
2022/05/08 10:43:19;;;;;;;15.27;2.42;;;24.70;96.10;;;;;;4946855;29;20052;-42
2022/05/08 10:45:46;;;;;;;12.80;2.65;;;24.70;96.10;;;;;;4946922;29;20039;-42
2022/05/08 10:48:26;;;;;;;10.68;2.50;;;24.70;96.20;;;;;;4947347;29;20070;-40
2022/05/08 10:50:53;;;;;;;10.15;2.78;;;24.60;96.20;;;;;;4947149;29;20038;-40
2022/05/08 10:53:29;;;;;;;11.68;3.10;;;24.60;96.20;;;;;;4947281;29;20039;-46
2022/05/08 10:56:14;;;;;;;12.02;2.92;;;24.60;96.20;;;;;;4946771;29;20035;-40
2022/05/08 10:58:53;;;;;;;8.18;2.95;;;24.70;96.30;;;;;;4946743;29;20039;-43
2022/05/08 11:01:20;;;;;;;10.75;2.55;;;24.60;96.30;;;;;;4946574;29;20031;-40
2022/05/08 11:03:47;;;;;;;11.43;2.83;;;24.70;96.30;;;;;;4946646;29;20341;-43
2022/05/08 11:06:21;;;;;;;12.57;2.78;;;24.70;96.30;;;;;;4946540;29;20367;-43
2022/05/08 11:08:47;;;;;;;10.30;2.10;;;24.70;96.20;;;;;;4946483;29;20038;-40
2022/05/08 11:11:14;;;;;;;13.98;1.90;;;24.70;96.30;;;;;;4946557;29;20027;-40
2022/05/08 11:13:46;;;;;;;10.80;1.63;;;24.70;96.30;;;;;;4946424;29;20091;-40
2022/05/08 11:16:36;;;;;;;12.07;1.60;;;24.80;96.20;;;;;;4946457;29;20024;-41
2022/05/08 11:19:05;;;;;;;10.77;1.50;;;24.70;96.20;;;;;;4946449;29;20036;-40
2022/05/08 11:21:32;;;;;;;7.00;1.45;;;24.80;96.20;;;;;;4946515;29;20034;-45
2022/05/08 11:23:59;;;;;;;10.25;1.20;;;24.80;96.30;;;;;;4946483;29;20291;-41
2022/05/08 11:26:33;;;;;;;10.98;1.27;;;24.80;96.30;;;;;;4946317;29;20062;-43
2022/05/08 11:29:02;;;;;;;3.78;0.90;;;24.80;96.20;;;;;;4946345;29;20088;-46
2022/05/08 11:31:33;;;;;;;7.75;1.25;;;24.80;96.20;;;;;;4946374;29;20107;-40
2022/05/08 11:36:44;;;;;;;12.48;1.30;;;24.90;96.40;;;;;;4946473;29;20071;-42
2022/05/08 11:39:19;;;;;;;5.20;0.90;;;24.90;96.30;;;;;;4946465;29;20036;-42
2022/05/08 11:41:49;;;;;;;8.85;1.25;;;24.90;96.30;;;;;;4946307;29;20024;-41
2022/05/08 11:44:15;;;;;;;5.35;0.85;;;24.90;96.20;;;;;;4945878;29;20071;-41
2022/05/08 11:46:46;;;;;;;5.40;1.77;;;24.90;96.20;;;;;;4947259;29;20023;-50
2022/05/08 11:49:20;;;;;;;5.38;2.25;;;25.10;96.20;;;;;;4950120;29;20028;-42
2022/05/08 11:51:52;;;;;;;10.05;2.97;;;25.10;96.10;;;;;;4950077;29;20043;-42
2022/05/08 11:54:20;;;;;;;8.80;2.10;;;25.30;96.00;;;;;;4949950;29;20087;-39
2022/05/08 11:56:49;;;;;;;7.75;1.85;;;25.30;95.90;;;;;;4950060;29;20295;-42
2022/05/08 11:59:23;;;;;;;12.68;1.77;;;25.30;95.90;;;;;;4949878;29;20235;-40
2022/05/08 12:01:52;;;;;;;11.73;2.00;;;25.30;95.90;;;;;;4949971;29;20027;-46
2022/05/08 12:04:26;;;;;;;5.47;2.00;;;25.40;95.90;;;;;;4949670;29;20095;-40
2022/05/08 12:07:02;;;;;;;7.95;1.90;;;25.40;95.80;;;;;;4949891;29;20038;-40
2022/05/08 12:09:56;;;;;;;9.18;1.92;;;25.50;95.80;;;;;;4949596;29;20062;-48
2022/05/08 12:12:26;;;;;;;6.03;1.90;;;25.50;95.70;;;;;;4944340;29;20047;-42
2022/05/08 12:14:55;;;;;;;8.20;1.80;;;25.50;95.70;;;;;;4949457;29;20043;-39
2022/05/08 12:17:22;;;;;;;9.48;2.40;;;25.50;95.60;;;;;;4949851;29;20019;-39
2022/05/08 12:19:55;;;;;;;9.23;2.25;;;25.50;95.70;;;;;;4949589;29;20042;-43
2022/05/08 12:22:26;;;;;;;6.00;2.33;;;25.50;95.50;;;;;;4949828;29;20236;-40
2022/05/08 12:24:54;;;;;;;8.95;2.25;;;25.60;95.60;;;;;;4949668;29;20035;-39
2022/05/08 12:27:21;;;;;;;6.50;2.10;;;25.60;95.60;;;;;;4949480;29;20091;-35
2022/05/08 12:29:50;;;;;;;5.95;1.42;;;25.60;95.50;;;;;;4949465;29;20035;-37
2022/05/08 12:32:17;;;;;;;3.97;1.30;;;25.60;95.40;;;;;;4949203;29;20028;-39
2022/05/08 12:34:45;;;;;;;8.10;1.48;;;25.70;95.50;;;;;;4949052;29;20283;-36
2022/05/08 12:37:14;;;;;;;7.32;1.50;;;25.70;95.40;;;;;;4949473;29;20027;-40
2022/05/08 12:39:42;;;;;;;5.95;1.60;;;25.70;95.40;;;;;;4949123;29;20303;-47
2022/05/08 12:42:10;;;;;;;11.85;3.83;;;25.70;95.30;;;;;;4949108;29;20311;-41
2022/05/08 12:44:37;;;;;;;8.15;1.95;;;25.70;95.20;;;;;;4948892;29;20060;-46
2022/05/08 12:47:08;;;;;;;6.20;1.75;;;25.70;95.10;;;;;;4949309;29;20027;-47
2022/05/08 12:49:36;;;;;;;7.28;1.48;;;25.70;95.20;;;;;;4948954;29;20040;-50
2022/05/08 12:52:04;;;;;;;7.03;1.30;;;25.80;95.00;;;;;;4949247;29;20304;-51
2022/05/08 12:54:31;;;;;;;6.28;1.58;;;25.80;95.20;;;;;;4948999;29;20046;-48
2022/05/08 12:57:06;;;;;;;7.15;1.50;;;25.80;95.00;;;;;;4948958;29;20016;-49
2022/05/08 12:59:43;;;;;;;7.15;1.35;;;25.90;94.90;;;;;;4948231;29;20039;-36
2022/05/08 13:02:11;;;;;;;3.17;1.02;;;25.90;94.80;;;;;;4948882;29;20082;-37
2022/05/08 13:04:39;;;;;;;7.93;1.40;;;25.90;94.70;;;;;;4948762;29;20283;-40
2022/05/08 13:07:05;;;;;;;7.13;1.20;;;26.00;94.70;;;;;;4948849;29;20038;-42
2022/05/08 13:09:32;;;;;;;7.53;1.42;;;26.10;94.60;;;;;;4948557;29;20034;-39
2022/05/08 13:12:00;;;;;;;4.03;1.00;;;26.10;94.60;;;;;;4948744;29;20330;-41
2022/05/08 13:14:29;;;;;;;5.10;1.30;;;26.10;94.50;;;;;;4948418;29;20031;-39
2022/05/08 13:16:57;;;;;;;5.68;1.00;;;26.20;94.50;;;;;;4948514;29;20036;-45
2022/05/08 13:19:23;;;;;;;6.65;1.10;;;26.30;94.40;;;;;;4948741;29;20036;-43
2022/05/08 13:24:47;;;;;;;4.85;0.98;;;26.60;94.10;;;;;;5292425;23;20065;-43